sensor_id;sensor_type;location;lat;lon;timestamp;P1;durP1;ratioP1;P2;durP2;ratioP2
42124;SDS011;27787;44.594;11.046;2023-06-14T00:01:36;13.27;;;6.88;;
42124;SDS011;27787;44.594;11.046;2023-06-14T00:04:22;19.38;;;8.93;;
42124;SDS011;27787;44.594;11.046;2023-06-14T00:07:09;14.63;;;7.28;;
42124;SDS011;27787;44.594;11.046;2023-06-14T00:09:54;12.35;;;7.45;;
42124;SDS011;27787;44.594;11.046;2023-06-14T00:12:38;14.95;;;9.25;;
42124;SDS011;27787;44.594;11.046;2023-06-14T00:15:23;18.40;;;8.65;;
42124;SDS011;27787;44.594;11.046;2023-06-14T00:18:07;10.68;;;7.40;;
42124;SDS011;27787;44.594;11.046;2023-06-14T00:20:53;12.30;;;8.13;;
42124;SDS011;27787;44.594;11.046;2023-06-14T00:23:37;18.20;;;8.75;;
42124;SDS011;27787;44.594;11.046;2023-06-14T00:26:22;13.10;;;8.23;;
42124;SDS011;27787;44.594;11.046;2023-06-14T00:29:07;11.27;;;8.18;;
42124;SDS011;27787;44.594;11.046;2023-06-14T00:31:51;10.35;;;7.20;;
42124;SDS011;27787;44.594;11.046;2023-06-14T00:34:36;15.63;;;8.13;;
42124;SDS011;27787;44.594;11.046;2023-06-14T00:37:21;16.65;;;7.22;;
42124;SDS011;27787;44.594;11.046;2023-06-14T00:42:51;13.07;;;5.95;;
42124;SDS011;27787;44.594;11.046;2023-06-14T00:45:35;12.43;;;6.07;;
42124;SDS011;27787;44.594;11.046;2023-06-14T00:48:19;11.90;;;6.20;;
42124;SDS011;27787;44.594;11.046;2023-06-14T00:51:05;12.13;;;6.60;;
42124;SDS011;27787;44.594;11.046;2023-06-14T00:53:50;10.57;;;6.40;;
42124;SDS011;27787;44.594;11.046;2023-06-14T00:56:35;13.07;;;8.05;;
42124;SDS011;27787;44.594;11.046;2023-06-14T00:59:14;22.05;;;9.43;;
42124;SDS011;27787;44.594;11.046;2023-06-14T01:02:00;14.07;;;7.30;;
42124;SDS011;27787;44.594;11.046;2023-06-14T01:04:45;13.95;;;7.70;;
42124;SDS011;27787;44.594;11.046;2023-06-14T01:10:35;12.52;;;6.60;;
42124;SDS011;27787;44.594;11.046;2023-06-14T01:13:36;9.40;;;5.20;;
42124;SDS011;27787;44.594;11.046;2023-06-14T01:16:23;11.75;;;4.95;;
42124;SDS011;27787;44.594;11.046;2023-06-14T01:19:07;8.98;;;4.63;;
42124;SDS011;27787;44.594;11.046;2023-06-14T01:21:58;12.43;;;5.60;;
42124;SDS011;27787;44.594;11.046;2023-06-14T01:24:44;10.77;;;4.97;;
42124;SDS011;27787;44.594;11.046;2023-06-14T01:27:29;12.90;;;4.68;;
42124;SDS011;27787;44.594;11.046;2023-06-14T01:30:16;8.98;;;4.43;;
42124;SDS011;27787;44.594;11.046;2023-06-14T01:33:02;12.98;;;4.78;;
42124;SDS011;27787;44.594;11.046;2023-06-14T01:35:49;6.65;;;4.05;;
42124;SDS011;27787;44.594;11.046;2023-06-14T01:38:34;8.48;;;3.53;;
42124;SDS011;27787;44.594;11.046;2023-06-14T01:44:32;6.38;;;4.50;;
42124;SDS011;27787;44.594;11.046;2023-06-14T01:47:19;8.80;;;4.03;;
42124;SDS011;27787;44.594;11.046;2023-06-14T01:50:06;7.90;;;4.43;;
42124;SDS011;27787;44.594;11.046;2023-06-14T01:52:51;11.38;;;4.75;;
42124;SDS011;27787;44.594;11.046;2023-06-14T01:55:35;8.68;;;4.82;;
42124;SDS011;27787;44.594;11.046;2023-06-14T01:58:24;10.18;;;4.38;;
42124;SDS011;27787;44.594;11.046;2023-06-14T02:03:55;10.55;;;5.20;;
42124;SDS011;27787;44.594;11.046;2023-06-14T02:06:39;8.73;;;5.67;;
42124;SDS011;27787;44.594;11.046;2023-06-14T02:09:24;15.10;;;7.60;;
42124;SDS011;27787;44.594;11.046;2023-06-14T02:12:13;12.40;;;7.05;;
42124;SDS011;27787;44.594;11.046;2023-06-14T02:17:45;9.55;;;5.57;;
42124;SDS011;27787;44.594;11.046;2023-06-14T02:20:31;10.63;;;5.53;;
42124;SDS011;27787;44.594;11.046;2023-06-14T02:23:15;10.85;;;5.05;;
42124;SDS011;27787;44.594;11.046;2023-06-14T02:25:59;10.38;;;5.20;;
42124;SDS011;27787;44.594;11.046;2023-06-14T02:28:44;11.98;;;5.03;;
42124;SDS011;27787;44.594;11.046;2023-06-14T02:34:14;7.75;;;4.28;;
42124;SDS011;27787;44.594;11.046;2023-06-14T02:37:01;11.10;;;5.38;;
42124;SDS011;27787;44.594;11.046;2023-06-14T02:39:47;12.73;;;4.13;;
42124;SDS011;27787;44.594;11.046;2023-06-14T02:42:31;8.40;;;5.05;;
42124;SDS011;27787;44.594;11.046;2023-06-14T02:45:15;8.97;;;4.80;;
42124;SDS011;27787;44.594;11.046;2023-06-14T02:48:00;16.23;;;6.55;;
42124;SDS011;27787;44.594;11.046;2023-06-14T02:50:44;11.90;;;5.70;;
42124;SDS011;27787;44.594;11.046;2023-06-14T02:53:29;15.03;;;6.17;;
42124;SDS011;27787;44.594;11.046;2023-06-14T02:56:14;13.50;;;6.17;;
42124;SDS011;27787;44.594;11.046;2023-06-14T02:59:01;8.75;;;5.80;;
42124;SDS011;27787;44.594;11.046;2023-06-14T03:01:46;11.88;;;6.60;;
42124;SDS011;27787;44.594;11.046;2023-06-14T03:04:32;11.95;;;5.95;;
42124;SDS011;27787;44.594;11.046;2023-06-14T03:10:32;13.50;;;6.43;;
42124;SDS011;27787;44.594;11.046;2023-06-14T03:13:17;10.40;;;5.80;;
42124;SDS011;27787;44.594;11.046;2023-06-14T03:16:06;9.73;;;5.80;;
42124;SDS011;27787;44.594;11.046;2023-06-14T03:18:54;10.38;;;5.60;;
42124;SDS011;27787;44.594;11.046;2023-06-14T03:21:38;14.40;;;6.67;;
42124;SDS011;27787;44.594;11.046;2023-06-14T03:24:28;10.13;;;5.25;;
42124;SDS011;27787;44.594;11.046;2023-06-14T03:27:13;16.58;;;5.38;;
42124;SDS011;27787;44.594;11.046;2023-06-14T03:30:01;11.98;;;5.35;;
42124;SDS011;27787;44.594;11.046;2023-06-14T03:32:47;13.93;;;5.47;;
42124;SDS011;27787;44.594;11.046;2023-06-14T03:35:32;9.10;;;4.50;;
42124;SDS011;27787;44.594;11.046;2023-06-14T03:38:15;9.73;;;4.38;;
42124;SDS011;27787;44.594;11.046;2023-06-14T03:41:00;13.57;;;4.60;;
42124;SDS011;27787;44.594;11.046;2023-06-14T03:43:44;9.73;;;4.17;;
42124;SDS011;27787;44.594;11.046;2023-06-14T03:46:29;5.80;;;3.22;;
42124;SDS011;27787;44.594;11.046;2023-06-14T03:49:13;7.45;;;4.18;;
42124;SDS011;27787;44.594;11.046;2023-06-14T03:52:01;9.90;;;4.18;;
42124;SDS011;27787;44.594;11.046;2023-06-14T03:54:46;10.85;;;5.70;;
42124;SDS011;27787;44.594;11.046;2023-06-14T04:00:16;8.98;;;5.20;;
42124;SDS011;27787;44.594;11.046;2023-06-14T04:03:01;12.85;;;6.53;;
42124;SDS011;27787;44.594;11.046;2023-06-14T04:05:48;16.65;;;7.90;;
42124;SDS011;27787;44.594;11.046;2023-06-14T04:11:20;13.52;;;8.15;;
42124;SDS011;27787;44.594;11.046;2023-06-14T04:14:05;19.27;;;7.90;;
42124;SDS011;27787;44.594;11.046;2023-06-14T04:16:49;17.63;;;7.20;;
42124;SDS011;27787;44.594;11.046;2023-06-14T04:19:35;13.98;;;7.40;;
42124;SDS011;27787;44.594;11.046;2023-06-14T04:22:20;14.73;;;7.75;;
42124;SDS011;27787;44.594;11.046;2023-06-14T04:25:04;12.57;;;7.20;;
42124;SDS011;27787;44.594;11.046;2023-06-14T04:27:51;22.27;;;7.03;;
42124;SDS011;27787;44.594;11.046;2023-06-14T04:30:36;15.35;;;7.43;;
42124;SDS011;27787;44.594;11.046;2023-06-14T04:33:22;13.25;;;7.15;;
42124;SDS011;27787;44.594;11.046;2023-06-14T04:36:10;17.17;;;7.47;;
42124;SDS011;27787;44.594;11.046;2023-06-14T04:38:58;16.45;;;7.03;;
42124;SDS011;27787;44.594;11.046;2023-06-14T04:41:44;11.18;;;6.75;;
42124;SDS011;27787;44.594;11.046;2023-06-14T04:44:29;15.40;;;6.97;;
42124;SDS011;27787;44.594;11.046;2023-06-14T04:47:20;14.70;;;7.28;;
42124;SDS011;27787;44.594;11.046;2023-06-14T04:50:04;14.95;;;7.47;;
42124;SDS011;27787;44.594;11.046;2023-06-14T04:52:49;16.42;;;7.45;;
42124;SDS011;27787;44.594;11.046;2023-06-14T04:55:35;10.13;;;6.65;;
42124;SDS011;27787;44.594;11.046;2023-06-14T04:58:21;15.10;;;6.88;;
42124;SDS011;27787;44.594;11.046;2023-06-14T05:01:06;16.52;;;7.40;;
42124;SDS011;27787;44.594;11.046;2023-06-14T05:03:53;17.08;;;6.63;;
42124;SDS011;27787;44.594;11.046;2023-06-14T05:06:38;12.60;;;6.50;;
42124;SDS011;27787;44.594;11.046;2023-06-14T05:09:23;12.40;;;6.18;;
42124;SDS011;27787;44.594;11.046;2023-06-14T05:12:08;12.60;;;6.43;;
42124;SDS011;27787;44.594;11.046;2023-06-14T05:14:53;16.08;;;7.28;;
42124;SDS011;27787;44.594;11.046;2023-06-14T05:20:24;14.85;;;6.88;;
42124;SDS011;27787;44.594;11.046;2023-06-14T05:23:10;14.90;;;7.88;;
42124;SDS011;27787;44.594;11.046;2023-06-14T05:25:58;15.65;;;7.18;;
42124;SDS011;27787;44.594;11.046;2023-06-14T05:28:42;18.08;;;7.03;;
42124;SDS011;27787;44.594;11.046;2023-06-14T05:31:40;23.48;;;7.47;;
42124;SDS011;27787;44.594;11.046;2023-06-14T05:34:25;18.27;;;7.25;;
42124;SDS011;27787;44.594;11.046;2023-06-14T05:37:10;16.52;;;8.18;;
42124;SDS011;27787;44.594;11.046;2023-06-14T05:39:55;21.48;;;7.95;;
42124;SDS011;27787;44.594;11.046;2023-06-14T05:42:39;14.90;;;7.75;;
42124;SDS011;27787;44.594;11.046;2023-06-14T05:45:23;16.53;;;8.10;;
42124;SDS011;27787;44.594;11.046;2023-06-14T05:48:08;17.75;;;8.02;;
42124;SDS011;27787;44.594;11.046;2023-06-14T05:50:53;18.42;;;8.85;;
42124;SDS011;27787;44.594;11.046;2023-06-14T05:53:37;26.88;;;8.13;;
42124;SDS011;27787;44.594;11.046;2023-06-14T05:56:21;21.73;;;9.07;;
42124;SDS011;27787;44.594;11.046;2023-06-14T05:59:05;19.67;;;8.90;;
42124;SDS011;27787;44.594;11.046;2023-06-14T06:01:49;29.50;;;8.80;;
42124;SDS011;27787;44.594;11.046;2023-06-14T06:04:34;18.63;;;9.80;;
42124;SDS011;27787;44.594;11.046;2023-06-14T06:07:18;19.08;;;8.30;;
42124;SDS011;27787;44.594;11.046;2023-06-14T06:10:03;20.47;;;8.67;;
42124;SDS011;27787;44.594;11.046;2023-06-14T06:12:49;17.70;;;8.50;;
42124;SDS011;27787;44.594;11.046;2023-06-14T06:15:35;23.33;;;9.63;;
42124;SDS011;27787;44.594;11.046;2023-06-14T06:18:20;25.48;;;9.57;;
42124;SDS011;27787;44.594;11.046;2023-06-14T06:21:06;15.50;;;9.20;;
42124;SDS011;27787;44.594;11.046;2023-06-14T06:23:50;20.00;;;9.70;;
42124;SDS011;27787;44.594;11.046;2023-06-14T06:26:34;20.25;;;9.15;;
42124;SDS011;27787;44.594;11.046;2023-06-14T06:29:19;16.35;;;8.70;;
42124;SDS011;27787;44.594;11.046;2023-06-14T06:32:04;17.83;;;8.50;;
42124;SDS011;27787;44.594;11.046;2023-06-14T06:34:49;14.52;;;8.05;;
42124;SDS011;27787;44.594;11.046;2023-06-14T06:37:33;17.77;;;7.50;;
42124;SDS011;27787;44.594;11.046;2023-06-14T06:40:18;18.43;;;7.63;;
42124;SDS011;27787;44.594;11.046;2023-06-14T06:43:02;12.07;;;6.80;;
42124;SDS011;27787;44.594;11.046;2023-06-14T06:45:58;12.18;;;6.70;;
42124;SDS011;27787;44.594;11.046;2023-06-14T06:48:43;19.95;;;8.68;;
42124;SDS011;27787;44.594;11.046;2023-06-14T06:51:27;18.33;;;8.55;;
42124;SDS011;27787;44.594;11.046;2023-06-14T06:54:13;18.77;;;8.50;;
42124;SDS011;27787;44.594;11.046;2023-06-14T06:57:00;14.90;;;7.82;;
42124;SDS011;27787;44.594;11.046;2023-06-14T06:59:45;14.70;;;7.68;;
42124;SDS011;27787;44.594;11.046;2023-06-14T07:02:29;16.17;;;7.95;;
42124;SDS011;27787;44.594;11.046;2023-06-14T07:05:14;15.55;;;8.07;;
42124;SDS011;27787;44.594;11.046;2023-06-14T07:07:59;13.83;;;7.73;;
42124;SDS011;27787;44.594;11.046;2023-06-14T07:10:44;17.38;;;7.22;;
42124;SDS011;27787;44.594;11.046;2023-06-14T07:13:28;18.25;;;9.77;;
42124;SDS011;27787;44.594;11.046;2023-06-14T07:16:13;18.42;;;10.73;;
42124;SDS011;27787;44.594;11.046;2023-06-14T07:18:57;23.77;;;10.82;;
42124;SDS011;27787;44.594;11.046;2023-06-14T07:21:42;18.30;;;10.40;;
42124;SDS011;27787;44.594;11.046;2023-06-14T07:24:26;19.65;;;10.52;;
42124;SDS011;27787;44.594;11.046;2023-06-14T07:29:57;17.27;;;9.40;;
42124;SDS011;27787;44.594;11.046;2023-06-14T07:32:41;17.35;;;10.02;;
42124;SDS011;27787;44.594;11.046;2023-06-14T07:35:25;18.23;;;9.70;;
42124;SDS011;27787;44.594;11.046;2023-06-14T07:38:09;18.17;;;10.23;;
42124;SDS011;27787;44.594;11.046;2023-06-14T07:40:53;18.80;;;9.65;;
42124;SDS011;27787;44.594;11.046;2023-06-14T07:43:37;19.88;;;9.85;;
42124;SDS011;27787;44.594;11.046;2023-06-14T07:46:21;22.63;;;9.05;;
42124;SDS011;27787;44.594;11.046;2023-06-14T07:49:05;13.25;;;8.77;;
42124;SDS011;27787;44.594;11.046;2023-06-14T07:51:49;13.23;;;7.55;;
42124;SDS011;27787;44.594;11.046;2023-06-14T07:54:34;12.77;;;8.05;;
42124;SDS011;27787;44.594;11.046;2023-06-14T07:57:19;10.57;;;6.50;;
42124;SDS011;27787;44.594;11.046;2023-06-14T08:00:04;14.18;;;7.18;;
42124;SDS011;27787;44.594;11.046;2023-06-14T08:02:55;23.83;;;8.35;;
42124;SDS011;27787;44.594;11.046;2023-06-14T08:05:42;8.88;;;5.53;;
42124;SDS011;27787;44.594;11.046;2023-06-14T08:08:26;11.00;;;5.35;;
42124;SDS011;27787;44.594;11.046;2023-06-14T08:11:11;12.53;;;6.43;;
42124;SDS011;27787;44.594;11.046;2023-06-14T08:13:56;10.57;;;6.15;;
42124;SDS011;27787;44.594;11.046;2023-06-14T08:16:40;9.57;;;6.63;;
42124;SDS011;27787;44.594;11.046;2023-06-14T08:19:25;8.83;;;6.17;;
42124;SDS011;27787;44.594;11.046;2023-06-14T08:22:09;10.07;;;6.45;;
42124;SDS011;27787;44.594;11.046;2023-06-14T08:24:55;11.77;;;6.82;;
42124;SDS011;27787;44.594;11.046;2023-06-14T08:27:39;11.38;;;6.45;;
42124;SDS011;27787;44.594;11.046;2023-06-14T08:30:24;10.57;;;6.70;;
42124;SDS011;27787;44.594;11.046;2023-06-14T08:33:08;10.82;;;6.47;;
42124;SDS011;27787;44.594;11.046;2023-06-14T08:35:52;13.47;;;7.37;;
42124;SDS011;27787;44.594;11.046;2023-06-14T08:38:37;13.60;;;7.47;;
42124;SDS011;27787;44.594;11.046;2023-06-14T08:41:22;12.88;;;7.13;;
42124;SDS011;27787;44.594;11.046;2023-06-14T08:44:10;12.80;;;7.72;;
42124;SDS011;27787;44.594;11.046;2023-06-14T08:46:59;12.43;;;6.53;;
42124;SDS011;27787;44.594;11.046;2023-06-14T08:49:45;8.40;;;5.75;;
42124;SDS011;27787;44.594;11.046;2023-06-14T08:52:31;11.50;;;6.22;;
42124;SDS011;27787;44.594;11.046;2023-06-14T08:55:24;11.50;;;6.22;;
42124;SDS011;27787;44.594;11.046;2023-06-14T08:58:11;14.57;;;8.23;;
42124;SDS011;27787;44.594;11.046;2023-06-14T09:00:58;16.60;;;7.55;;
42124;SDS011;27787;44.594;11.046;2023-06-14T09:03:44;14.18;;;7.97;;
42124;SDS011;27787;44.594;11.046;2023-06-14T09:06:29;15.23;;;8.20;;
42124;SDS011;27787;44.594;11.046;2023-06-14T09:09:14;14.02;;;8.32;;
42124;SDS011;27787;44.594;11.046;2023-06-14T09:11:58;14.15;;;8.43;;
42124;SDS011;27787;44.594;11.046;2023-06-14T09:14:42;18.17;;;9.40;;
42124;SDS011;27787;44.594;11.046;2023-06-14T09:17:26;13.20;;;8.35;;
42124;SDS011;27787;44.594;11.046;2023-06-14T09:20:10;11.13;;;6.50;;
42124;SDS011;27787;44.594;11.046;2023-06-14T09:22:57;13.85;;;8.45;;
42124;SDS011;27787;44.594;11.046;2023-06-14T09:25:42;15.27;;;8.68;;
42124;SDS011;27787;44.594;11.046;2023-06-14T09:31:12;16.88;;;9.88;;
42124;SDS011;27787;44.594;11.046;2023-06-14T09:33:57;17.10;;;9.25;;
42124;SDS011;27787;44.594;11.046;2023-06-14T09:36:45;10.82;;;7.25;;
42124;SDS011;27787;44.594;11.046;2023-06-14T09:39:29;11.43;;;7.47;;
42124;SDS011;27787;44.594;11.046;2023-06-14T09:42:17;11.27;;;5.90;;
42124;SDS011;27787;44.594;11.046;2023-06-14T09:45:07;11.05;;;6.50;;
42124;SDS011;27787;44.594;11.046;2023-06-14T09:47:52;9.98;;;5.63;;
42124;SDS011;27787;44.594;11.046;2023-06-14T09:50:37;9.52;;;6.10;;
42124;SDS011;27787;44.594;11.046;2023-06-14T09:53:21;10.73;;;6.03;;
42124;SDS011;27787;44.594;11.046;2023-06-14T09:56:09;10.13;;;6.28;;
42124;SDS011;27787;44.594;11.046;2023-06-14T09:58:56;7.15;;;5.15;;
42124;SDS011;27787;44.594;11.046;2023-06-14T10:01:42;9.80;;;6.05;;
42124;SDS011;27787;44.594;11.046;2023-06-14T10:04:27;12.63;;;7.25;;
42124;SDS011;27787;44.594;11.046;2023-06-14T10:07:18;12.05;;;7.70;;
42124;SDS011;27787;44.594;11.046;2023-06-14T10:10:06;11.25;;;7.75;;
42124;SDS011;27787;44.594;11.046;2023-06-14T10:12:51;11.43;;;8.00;;
42124;SDS011;27787;44.594;11.046;2023-06-14T10:22:10;11.63;;;9.00;;
42124;SDS011;27787;44.594;11.046;2023-06-14T10:24:58;12.27;;;8.07;;
42124;SDS011;27787;44.594;11.046;2023-06-14T10:27:44;10.50;;;7.45;;
42124;SDS011;27787;44.594;11.046;2023-06-14T10:30:29;9.52;;;6.93;;
42124;SDS011;27787;44.594;11.046;2023-06-14T10:33:14;11.73;;;7.70;;
42124;SDS011;27787;44.594;11.046;2023-06-14T10:36:09;12.50;;;6.57;;
42124;SDS011;27787;44.594;11.046;2023-06-14T10:39:18;6.57;;;4.63;;
42124;SDS011;27787;44.594;11.046;2023-06-14T10:42:03;6.50;;;4.40;;
42124;SDS011;27787;44.594;11.046;2023-06-14T10:44:50;8.05;;;4.55;;
42124;SDS011;27787;44.594;11.046;2023-06-14T10:47:43;12.05;;;4.82;;
42124;SDS011;27787;44.594;11.046;2023-06-14T10:50:27;5.28;;;3.50;;
42124;SDS011;27787;44.594;11.046;2023-06-14T10:53:24;10.93;;;3.40;;
42124;SDS011;27787;44.594;11.046;2023-06-14T10:56:09;7.07;;;3.35;;
42124;SDS011;27787;44.594;11.046;2023-06-14T10:59:08;5.13;;;4.03;;
42124;SDS011;27787;44.594;11.046;2023-06-14T11:04:57;6.47;;;3.92;;
42124;SDS011;27787;44.594;11.046;2023-06-14T11:10:37;5.47;;;3.47;;
42124;SDS011;27787;44.594;11.046;2023-06-14T11:13:24;5.97;;;3.47;;
42124;SDS011;27787;44.594;11.046;2023-06-14T11:16:10;4.80;;;3.17;;
42124;SDS011;27787;44.594;11.046;2023-06-14T11:18:55;4.05;;;3.08;;
42124;SDS011;27787;44.594;11.046;2023-06-14T11:21:40;7.27;;;3.87;;
42124;SDS011;27787;44.594;11.046;2023-06-14T11:24:24;10.02;;;3.30;;
42124;SDS011;27787;44.594;11.046;2023-06-14T11:27:09;5.27;;;3.57;;
42124;SDS011;27787;44.594;11.046;2023-06-14T11:29:53;4.93;;;3.22;;
42124;SDS011;27787;44.594;11.046;2023-06-14T11:32:37;6.50;;;3.35;;
42124;SDS011;27787;44.594;11.046;2023-06-14T11:35:22;3.55;;;2.72;;
42124;SDS011;27787;44.594;11.046;2023-06-14T11:38:07;5.40;;;3.17;;
42124;SDS011;27787;44.594;11.046;2023-06-14T11:40:58;6.65;;;3.00;;
42124;SDS011;27787;44.594;11.046;2023-06-14T11:43:42;4.57;;;3.10;;
42124;SDS011;27787;44.594;11.046;2023-06-14T11:46:26;5.72;;;2.50;;
42124;SDS011;27787;44.594;11.046;2023-06-14T11:49:10;4.72;;;2.97;;
42124;SDS011;27787;44.594;11.046;2023-06-14T11:51:55;4.60;;;2.80;;
42124;SDS011;27787;44.594;11.046;2023-06-14T11:54:39;5.82;;;3.17;;
42124;SDS011;27787;44.594;11.046;2023-06-14T11:57:24;5.50;;;2.97;;
42124;SDS011;27787;44.594;11.046;2023-06-14T12:00:09;3.85;;;2.42;;
42124;SDS011;27787;44.594;11.046;2023-06-14T12:02:59;5.72;;;3.20;;
42124;SDS011;27787;44.594;11.046;2023-06-14T12:05:43;4.53;;;2.67;;
42124;SDS011;27787;44.594;11.046;2023-06-14T12:08:37;4.00;;;2.78;;
42124;SDS011;27787;44.594;11.046;2023-06-14T12:11:31;4.13;;;2.50;;
42124;SDS011;27787;44.594;11.046;2023-06-14T12:14:17;4.75;;;3.00;;
42124;SDS011;27787;44.594;11.046;2023-06-14T12:17:05;5.20;;;2.72;;
42124;SDS011;27787;44.594;11.046;2023-06-14T12:19:53;3.88;;;2.95;;
42124;SDS011;27787;44.594;11.046;2023-06-14T12:22:37;9.05;;;2.97;;
42124;SDS011;27787;44.594;11.046;2023-06-14T12:28:12;4.20;;;2.83;;
42124;SDS011;27787;44.594;11.046;2023-06-14T12:30:56;4.32;;;2.65;;
42124;SDS011;27787;44.594;11.046;2023-06-14T12:33:42;5.10;;;2.85;;
42124;SDS011;27787;44.594;11.046;2023-06-14T12:36:29;3.97;;;2.70;;
42124;SDS011;27787;44.594;11.046;2023-06-14T12:39:15;4.15;;;2.70;;
42124;SDS011;27787;44.594;11.046;2023-06-14T12:41:59;5.18;;;3.05;;
42124;SDS011;27787;44.594;11.046;2023-06-14T12:44:44;5.18;;;3.35;;
42124;SDS011;27787;44.594;11.046;2023-06-14T12:47:29;4.72;;;3.60;;
42124;SDS011;27787;44.594;11.046;2023-06-14T12:50:13;6.13;;;3.35;;
42124;SDS011;27787;44.594;11.046;2023-06-14T12:52:58;4.30;;;3.08;;
42124;SDS011;27787;44.594;11.046;2023-06-14T12:55:42;7.55;;;3.65;;
42124;SDS011;27787;44.594;11.046;2023-06-14T12:58:26;6.47;;;3.75;;
42124;SDS011;27787;44.594;11.046;2023-06-14T13:01:11;6.25;;;3.70;;
42124;SDS011;27787;44.594;11.046;2023-06-14T13:03:55;5.05;;;3.10;;
42124;SDS011;27787;44.594;11.046;2023-06-14T13:06:39;10.35;;;3.53;;
42124;SDS011;27787;44.594;11.046;2023-06-14T13:09:23;6.40;;;3.20;;
42124;SDS011;27787;44.594;11.046;2023-06-14T13:12:08;5.60;;;3.10;;
42124;SDS011;27787;44.594;11.046;2023-06-14T13:14:56;4.32;;;3.08;;
42124;SDS011;27787;44.594;11.046;2023-06-14T13:17:40;5.15;;;3.65;;
42124;SDS011;27787;44.594;11.046;2023-06-14T13:20:25;5.00;;;3.80;;
42124;SDS011;27787;44.594;11.046;2023-06-14T13:23:10;6.88;;;3.45;;
42124;SDS011;27787;44.594;11.046;2023-06-14T13:25:54;4.32;;;2.92;;
42124;SDS011;27787;44.594;11.046;2023-06-14T13:28:39;6.30;;;3.55;;
42124;SDS011;27787;44.594;11.046;2023-06-14T13:31:23;5.10;;;3.85;;
42124;SDS011;27787;44.594;11.046;2023-06-14T13:34:07;7.43;;;3.50;;
42124;SDS011;27787;44.594;11.046;2023-06-14T13:36:51;5.15;;;3.22;;
42124;SDS011;27787;44.594;11.046;2023-06-14T13:39:35;6.10;;;3.90;;
42124;SDS011;27787;44.594;11.046;2023-06-14T13:42:21;5.82;;;3.38;;
42124;SDS011;27787;44.594;11.046;2023-06-14T13:45:05;8.57;;;3.35;;
42124;SDS011;27787;44.594;11.046;2023-06-14T13:47:50;7.80;;;3.53;;
42124;SDS011;27787;44.594;11.046;2023-06-14T13:50:35;5.18;;;3.80;;
42124;SDS011;27787;44.594;11.046;2023-06-14T13:53:19;5.68;;;3.25;;
42124;SDS011;27787;44.594;11.046;2023-06-14T13:56:03;6.43;;;4.10;;
42124;SDS011;27787;44.594;11.046;2023-06-14T13:58:48;5.38;;;3.17;;
42124;SDS011;27787;44.594;11.046;2023-06-14T14:01:32;4.40;;;3.28;;
42124;SDS011;27787;44.594;11.046;2023-06-14T14:04:16;5.93;;;3.65;;
42124;SDS011;27787;44.594;11.046;2023-06-14T14:07:02;6.93;;;3.20;;
42124;SDS011;27787;44.594;11.046;2023-06-14T14:09:46;6.43;;;3.25;;
42124;SDS011;27787;44.594;11.046;2023-06-14T14:12:31;5.68;;;3.67;;
42124;SDS011;27787;44.594;11.046;2023-06-14T14:15:15;4.70;;;3.15;;
42124;SDS011;27787;44.594;11.046;2023-06-14T14:17:59;8.85;;;3.65;;
42124;SDS011;27787;44.594;11.046;2023-06-14T14:20:44;3.85;;;3.03;;
42124;SDS011;27787;44.594;11.046;2023-06-14T14:23:27;5.13;;;3.38;;
42124;SDS011;27787;44.594;11.046;2023-06-14T14:26:12;5.45;;;3.35;;
42124;SDS011;27787;44.594;11.046;2023-06-14T14:28:56;5.47;;;3.17;;
42124;SDS011;27787;44.594;11.046;2023-06-14T14:31:41;4.85;;;3.17;;
42124;SDS011;27787;44.594;11.046;2023-06-14T14:34:25;5.75;;;3.63;;
42124;SDS011;27787;44.594;11.046;2023-06-14T14:37:09;4.53;;;3.50;;
42124;SDS011;27787;44.594;11.046;2023-06-14T14:39:54;4.22;;;3.10;;
42124;SDS011;27787;44.594;11.046;2023-06-14T14:42:38;5.13;;;3.45;;
42124;SDS011;27787;44.594;11.046;2023-06-14T14:45:22;6.82;;;4.00;;
42124;SDS011;27787;44.594;11.046;2023-06-14T14:48:08;6.32;;;3.50;;
42124;SDS011;27787;44.594;11.046;2023-06-14T14:50:52;5.10;;;3.53;;
42124;SDS011;27787;44.594;11.046;2023-06-14T14:53:37;5.30;;;3.50;;
42124;SDS011;27787;44.594;11.046;2023-06-14T14:56:22;5.10;;;3.40;;
42124;SDS011;27787;44.594;11.046;2023-06-14T14:59:07;6.30;;;2.92;;
42124;SDS011;27787;44.594;11.046;2023-06-14T15:01:53;8.02;;;3.55;;
42124;SDS011;27787;44.594;11.046;2023-06-14T15:04:39;4.97;;;3.45;;
42124;SDS011;27787;44.594;11.046;2023-06-14T15:07:24;7.75;;;3.30;;
42124;SDS011;27787;44.594;11.046;2023-06-14T15:10:11;5.45;;;3.30;;
42124;SDS011;27787;44.594;11.046;2023-06-14T15:12:56;7.40;;;3.65;;
42124;SDS011;27787;44.594;11.046;2023-06-14T15:15:40;8.98;;;3.70;;
42124;SDS011;27787;44.594;11.046;2023-06-14T15:18:24;6.63;;;3.70;;
42124;SDS011;27787;44.594;11.046;2023-06-14T15:21:08;4.70;;;3.20;;
42124;SDS011;27787;44.594;11.046;2023-06-14T15:23:52;7.43;;;3.80;;
42124;SDS011;27787;44.594;11.046;2023-06-14T15:26:37;5.35;;;3.67;;
42124;SDS011;27787;44.594;11.046;2023-06-14T15:29:21;6.45;;;3.85;;
42124;SDS011;27787;44.594;11.046;2023-06-14T15:32:05;9.52;;;3.83;;
42124;SDS011;27787;44.594;11.046;2023-06-14T15:34:50;5.90;;;3.65;;
42124;SDS011;27787;44.594;11.046;2023-06-14T15:37:34;5.00;;;3.20;;
42124;SDS011;27787;44.594;11.046;2023-06-14T15:40:18;6.60;;;3.55;;
42124;SDS011;27787;44.594;11.046;2023-06-14T15:43:03;6.45;;;3.25;;
42124;SDS011;27787;44.594;11.046;2023-06-14T15:45:47;5.13;;;3.47;;
42124;SDS011;27787;44.594;11.046;2023-06-14T15:48:31;5.45;;;3.30;;
42124;SDS011;27787;44.594;11.046;2023-06-14T15:51:15;9.88;;;3.78;;
42124;SDS011;27787;44.594;11.046;2023-06-14T15:54:00;4.40;;;3.10;;
42124;SDS011;27787;44.594;11.046;2023-06-14T15:56:44;12.20;;;3.40;;
42124;SDS011;27787;44.594;11.046;2023-06-14T15:59:28;6.32;;;3.28;;
42124;SDS011;27787;44.594;11.046;2023-06-14T16:02:13;8.82;;;3.55;;
42124;SDS011;27787;44.594;11.046;2023-06-14T16:04:57;6.75;;;3.25;;
42124;SDS011;27787;44.594;11.046;2023-06-14T16:07:41;5.90;;;3.78;;
42124;SDS011;27787;44.594;11.046;2023-06-14T16:10:25;7.35;;;3.42;;
42124;SDS011;27787;44.594;11.046;2023-06-14T16:13:10;5.03;;;3.55;;
42124;SDS011;27787;44.594;11.046;2023-06-14T16:15:54;6.95;;;3.67;;
42124;SDS011;27787;44.594;11.046;2023-06-14T16:18:39;4.38;;;3.50;;
42124;SDS011;27787;44.594;11.046;2023-06-14T16:21:26;6.72;;;3.55;;
42124;SDS011;27787;44.594;11.046;2023-06-14T16:24:12;5.30;;;3.60;;
42124;SDS011;27787;44.594;11.046;2023-06-14T16:26:58;5.97;;;3.85;;
42124;SDS011;27787;44.594;11.046;2023-06-14T16:29:42;5.05;;;3.85;;
42124;SDS011;27787;44.594;11.046;2023-06-14T16:35:12;4.47;;;3.30;;
42124;SDS011;27787;44.594;11.046;2023-06-14T16:37:57;6.78;;;3.42;;
42124;SDS011;27787;44.594;11.046;2023-06-14T16:40:41;5.95;;;3.35;;
42124;SDS011;27787;44.594;11.046;2023-06-14T16:43:26;10.20;;;3.53;;
42124;SDS011;27787;44.594;11.046;2023-06-14T16:46:10;5.03;;;3.80;;
42124;SDS011;27787;44.594;11.046;2023-06-14T16:48:54;6.40;;;3.40;;
42124;SDS011;27787;44.594;11.046;2023-06-14T16:51:39;5.75;;;3.63;;
42124;SDS011;27787;44.594;11.046;2023-06-14T16:54:23;7.10;;;3.95;;
42124;SDS011;27787;44.594;11.046;2023-06-14T16:57:07;5.57;;;3.95;;
42124;SDS011;27787;44.594;11.046;2023-06-14T16:59:52;5.68;;;3.92;;
42124;SDS011;27787;44.594;11.046;2023-06-14T17:02:37;5.07;;;3.33;;
42124;SDS011;27787;44.594;11.046;2023-06-14T17:05:21;6.28;;;4.07;;
42124;SDS011;27787;44.594;11.046;2023-06-14T17:08:06;6.25;;;3.45;;